Time;durP1;ratioP1;P1;durP2;ratioP2;P2;SDS_P1;SDS_P2;PMS_P1;PMS_P2;Temp;Humidity;BMP_temperature;BMP_pressure;BME280_temperature;BME280_humidity;BME280_pressure;Samples;Min_cycle;Max_cycle;Signal;HPM_P1;HPM_P2
2021/05/27 00:00:14;;;;;;;12.10;6.13;;;11.20;99.90;;;;;;5014441;28;20236;-89
2021/05/27 00:02:47;;;;;;;11.02;6.70;;;11.40;99.90;;;;;;5021948;28;20590;-90
2021/05/27 00:05:18;;;;;;;16.98;7.30;;;12.90;99.90;;;;;;5015360;28;20052;-90
2021/05/27 00:07:58;;;;;;;13.23;6.95;;;10.80;99.90;;;;;;5029793;28;20058;-88
2021/05/27 00:10:31;;;;;;;13.18;5.57;;;10.90;99.90;;;;;;5013662;28;20034;-91
2021/05/27 00:13:36;;;;;;;11.23;7.15;;;10.80;99.90;;;;;;5002399;28;20041;-90
2021/05/27 00:16:18;;;;;;;13.57;7.07;;;9.40;99.90;;;;;;5013459;28;20412;-90
2021/05/27 00:18:53;;;;;;;10.10;7.00;;;10.60;99.90;;;;;;5029216;28;20057;-90
2021/05/27 00:21:37;;;;;;;12.48;7.18;;;10.60;99.90;;;;;;4998547;28;20418;-90
2021/05/27 00:24:20;;;;;;;16.55;7.07;;;10.50;99.90;;;;;;5011482;28;20046;-91
2021/05/27 00:27:05;;;;;;;16.92;7.03;;;10.40;99.90;;;;;;5008471;28;20054;-90
2021/05/27 00:29:53;;;;;;;11.43;6.97;;;10.40;99.90;;;;;;4980345;28;20054;-91
2021/05/27 00:32:36;;;;;;;12.75;7.25;;;10.10;99.90;;;;;;4984856;28;20037;-89
2021/05/27 00:35:18;;;;;;;12.23;6.65;;;10.30;99.90;;;;;;5018176;28;20046;-91
2021/05/27 00:38:09;;;;;;;11.70;6.82;;;10.30;99.90;;;;;;5025496;28;20103;-91
2021/05/27 00:40:58;;;;;;;17.23;7.97;;;10.20;99.90;;;;;;5016205;28;20046;-91
2021/05/27 00:43:33;;;;;;;19.02;8.65;;;10.20;99.90;;;;;;5000642;28;20046;-90
2021/05/27 00:46:22;;;;;;;10.73;6.40;;;10.20;99.90;;;;;;5025824;28;20057;-90
2021/05/27 00:49:00;;;;;;;10.05;7.18;;;10.10;99.90;;;;;;5001204;28;20049;-91
2021/05/27 01:47:04;;;;;;;16.30;8.68;;;9.50;99.90;;;;;;5037576;28;20056;-90
2021/05/27 01:49:33;;;;;;;18.92;9.00;;;9.50;99.90;;;;;;5021451;28;20072;-91
2021/05/27 01:52:02;;;;;;;16.42;10.10;;;9.50;99.90;;;;;;5008809;28;20065;-91
2021/05/27 01:54:36;;;;;;;13.05;7.78;;;9.50;99.90;;;;;;4990218;28;20049;-91
2021/05/27 01:57:05;;;;;;;14.77;8.93;;;9.50;99.90;;;;;;4990392;28;20057;-93
2021/05/27 01:59:36;;;;;;;;;;;10.00;99.90;;;;;;4992605;28;20496;-92
2021/05/27 02:02:04;;;;;;;17.20;8.75;;;9.50;99.90;;;;;;5007760;28;19921;-91
2021/05/27 02:04:33;;;;;;;21.60;8.55;;;9.50;99.90;;;;;;4989683;28;20058;-91
2021/05/27 02:07:11;;;;;;;18.15;10.27;;;9.50;99.90;;;;;;5006008;28;20065;-90
2021/05/27 02:09:42;;;;;;;20.73;10.40;;;9.50;99.90;;;;;;4987260;28;20454;-91
2021/05/27 02:12:15;;;;;;;14.65;10.00;;;10.10;99.90;;;;;;4991895;28;20061;-89
2021/05/27 02:14:48;;;;;;;17.30;9.43;;;9.60;99.90;;;;;;5009876;28;20049;-90
2021/05/27 02:17:17;;;;;;;18.42;10.27;;;9.50;99.90;;;;;;5008633;28;20061;-90
2021/05/27 02:19:49;;;;;;;16.17;8.90;;;9.30;99.90;;;;;;5009533;28;20049;-89
2021/05/27 02:22:25;;;;;;;19.42;11.38;;;9.40;99.90;;;;;;5013047;28;20064;-89
2021/05/27 02:25:19;;;;;;;20.38;10.55;;;9.40;99.90;;;;;;4988504;28;20053;-88
2021/05/27 02:28:04;;;;;;;21.90;11.07;;;9.80;99.90;;;;;;5026416;28;20049;-90
2021/05/27 02:30:34;;;;;;;;;;;9.40;99.90;;;;;;5014989;28;20042;-90
2021/05/27 02:33:21;;;;;;;17.30;10.43;;;9.40;99.90;;;;;;5030412;28;19928;-90
2021/05/27 02:36:18;;;;;;;17.58;9.05;;;9.50;99.90;;;;;;5016673;28;20046;-90
2021/05/27 02:39:06;;;;;;;20.10;9.70;;;9.40;99.90;;;;;;4999568;28;20075;-91
2021/05/27 02:41:57;;;;;;;18.77;11.52;;;9.40;99.90;;;;;;4996368;28;20068;-91
2021/05/27 02:44:41;;;;;;;20.15;10.55;;;9.40;99.90;;;;;;5034804;28;20045;-91
2021/05/27 02:47:14;;;;;;;22.08;10.05;;;9.40;99.90;;;;;;5029174;28;20073;-90
2021/05/27 02:50:00;;;;;;;18.10;9.43;;;9.30;99.90;;;;;;4997828;28;20050;-91
2021/05/27 02:52:50;;;;;;;20.02;10.95;;;9.30;99.90;;;;;;5002115;28;20072;-89
2021/05/27 02:55:34;;;;;;;18.58;10.60;;;9.20;99.90;;;;;;4984208;28;20050;-90
2021/05/27 02:58:22;;;;;;;17.70;9.80;;;9.10;99.90;;;;;;4973332;28;20053;-89
2021/05/27 03:01:02;;;;;;;20.33;10.60;;;10.50;99.90;;;;;;4970931;28;20060;-90
2021/05/27 03:03:34;;;;;;;18.10;10.45;;;9.10;99.90;;;;;;4988661;28;20053;-92
2021/05/27 03:06:04;;;;;;;18.50;9.90;;;9.30;99.90;;;;;;4988689;28;20066;-89
2021/05/27 03:08:43;;;;;;;17.98;10.57;;;9.00;99.90;;;;;;5002506;28;20413;-89
2021/05/27 03:11:12;;;;;;;14.27;8.55;;;9.00;99.90;;;;;;4970639;28;20061;-91
2021/05/27 03:13:42;;;;;;;14.35;8.60;;;8.90;99.90;;;;;;4985663;28;20863;-90
2021/05/27 03:16:28;;;;;;;16.50;10.13;;;8.90;99.90;;;;;;4996120;28;20050;-92
2021/05/27 03:19:10;;;;;;;17.02;10.18;;;8.70;99.90;;;;;;5003473;28;20054;-89
2021/05/27 03:21:39;;;;;;;16.63;9.77;;;8.80;99.90;;;;;;4990155;28;20048;-90
2021/05/27 03:24:23;;;;;;;22.27;11.80;;;9.30;99.90;;;;;;5001708;28;20071;-90
2021/05/27 03:26:53;;;;;;;24.52;12.50;;;8.70;99.90;;;;;;4995898;28;20042;-89
2021/05/27 03:29:26;;;;;;;24.60;11.63;;;8.80;99.90;;;;;;4980536;28;20057;-90
2021/05/27 03:31:55;;;;;;;21.52;13.48;;;8.80;99.90;;;;;;4977753;28;20049;-88
2021/05/27 03:34:23;;;;;;;23.98;13.65;;;9.30;99.90;;;;;;4973611;28;20050;-89
2021/05/27 03:36:55;;;;;;;29.33;13.30;;;8.90;99.90;;;;;;4999898;28;20356;-89
2021/05/27 03:39:23;;;;;;;22.92;12.25;;;10.00;99.90;;;;;;4995188;28;20055;-90
2021/05/27 03:41:52;;;;;;;17.67;11.13;;;8.90;99.90;;;;;;5012604;28;20046;-90
2021/05/27 03:44:24;;;;;;;22.67;13.35;;;9.00;99.90;;;;;;4997760;28;20049;-89
2021/05/27 03:46:54;;;;;;;20.73;11.75;;;8.90;99.90;;;;;;5000538;28;20145;-91
2021/05/27 03:49:22;;;;;;;20.90;12.40;;;8.90;99.90;;;;;;5012992;28;20049;-90
2021/05/27 03:51:52;;;;;;;23.10;11.48;;;9.00;99.90;;;;;;5036621;28;20058;-92
2021/05/27 03:54:20;;;;;;;19.45;10.80;;;8.90;99.90;;;;;;5005634;28;20057;-90
2021/05/27 03:56:48;;;;;;;22.77;12.10;;;8.90;99.90;;;;;;5004748;28;20049;-91
2021/05/27 04:02:15;;;;;;;22.77;10.90;;;8.90;99.90;;;;;;5005662;28;20054;-90
2021/05/27 04:07:45;;;;;;;25.90;12.75;;;8.90;99.90;;;;;;5023933;28;20045;-91
2021/05/27 04:10:14;;;;;;;19.77;11.25;;;8.90;99.90;;;;;;5007623;28;20061;-91
2021/05/27 04:12:47;;;;;;;16.75;9.65;;;9.40;99.90;;;;;;4990559;28;20045;-91
2021/05/27 04:15:37;;;;;;;19.85;11.27;;;9.60;99.90;;;;;;4993581;28;20042;-91
2021/05/27 04:18:13;;;;;;;19.75;10.35;;;8.90;99.90;;;;;;5025120;28;20072;-89
2021/05/27 04:20:58;;;;;;;23.88;11.00;;;8.90;99.90;;;;;;5013647;28;20046;-91
2021/05/27 04:23:36;;;;;;;17.50;10.30;;;8.90;99.90;;;;;;4979408;28;20072;-90
2021/05/27 04:26:09;;;;;;;19.08;11.18;;;8.80;99.90;;;;;;5009629;28;20051;-90
2021/05/27 04:29:02;;;;;;;22.75;13.65;;;9.70;99.90;;;;;;5022943;28;20056;-91
2021/05/27 04:31:31;;;;;;;19.23;11.48;;;8.80;99.90;;;;;;5009945;28;20049;-89
2021/05/27 04:34:38;;;;;;;18.58;10.77;;;8.90;99.90;;;;;;5104403;27;20416;-89
2021/05/27 04:37:13;;;;;;;20.27;11.00;;;8.80;99.90;;;;;;5098578;28;20061;-91
2021/05/27 04:39:55;;;;;;;21.25;12.20;;;9.50;99.90;;;;;;5099876;28;20544;-89
2021/05/27 04:42:32;;;;;;;19.10;10.48;;;8.90;99.90;;;;;;5082940;28;20048;-90
2021/05/27 04:45:03;;;;;;;21.88;12.05;;;8.90;99.90;;;;;;5099774;28;20052;-89
2021/05/27 04:47:31;;;;;;;24.27;11.60;;;8.90;99.90;;;;;;5087124;28;20048;-90
2021/05/27 04:50:13;;;;;;;19.48;11.70;;;8.90;99.90;;;;;;5098991;28;20047;-89
2021/05/27 04:52:55;;;;;;;23.52;11.90;;;9.40;99.90;;;;;;5121606;27;20048;-91
2021/05/27 04:55:37;;;;;;;20.73;11.27;;;9.00;99.90;;;;;;5064040;28;20044;-89
2021/05/27 04:58:06;;;;;;;24.88;14.48;;;9.50;99.90;;;;;;5088891;28;20076;-90
2021/05/27 05:00:35;;;;;;;23.88;12.95;;;9.10;99.90;;;;;;5084424;28;20051;-89
2021/05/27 05:03:03;;;;;;;18.52;10.15;;;9.40;99.90;;;;;;5093618;28;20058;-90
2021/05/27 05:05:36;;;;;;;20.42;10.73;;;9.20;99.90;;;;;;5102640;28;20048;-90
2021/05/27 05:08:18;;;;;;;19.95;11.63;;;9.20;99.90;;;;;;5087974;28;20048;-91
2021/05/27 05:11:00;;;;;;;19.27;10.73;;;10.70;99.90;;;;;;5085352;28;20491;-90
2021/05/27 05:13:29;;;;;;;21.98;12.52;;;9.30;99.90;;;;;;5091282;28;20411;-91
2021/05/27 05:16:37;;;;;;;21.05;12.00;;;9.30;99.90;;;;;;5101629;28;20054;-91
2021/05/27 05:19:25;;;;;;;19.70;12.70;;;9.50;99.90;;;;;;5100037;28;20051;-91
2021/05/27 05:21:56;;;;;;;23.42;14.68;;;9.50;99.90;;;;;;5107963;28;20048;-90
2021/05/27 05:24:41;;;;;;;21.90;12.63;;;9.60;99.90;;;;;;5103329;28;20048;-90
2021/05/27 05:27:10;;;;;;;23.45;12.48;;;9.70;99.90;;;;;;5100918;28;20062;-91
2021/05/27 05:29:43;;;;;;;21.85;11.43;;;9.80;99.90;;;;;;5088010;28;20357;-91
2021/05/27 05:32:26;;;;;;;22.90;12.93;;;9.20;99.90;;;;;;5109967;28;20415;-91
2021/05/27 05:35:11;;;;;;;26.20;12.07;;;10.00;99.90;;;;;;5108448;28;20074;-90
2021/05/27 05:37:54;;;;;;;22.48;12.85;;;10.10;99.90;;;;;;5119313;28;20044;-90
2021/05/27 05:40:29;;;;;;;26.20;14.57;;;10.10;99.90;;;;;;5082637;28;20059;-91
2021/05/27 05:43:06;;;;;;;21.20;11.75;;;10.60;99.90;;;;;;5081244;28;20048;-90
2021/05/27 05:45:34;;;;;;;22.08;11.82;;;10.40;99.90;;;;;;5060962;28;20511;-91
2021/05/27 05:48:04;;;;;;;20.67;11.48;;;10.40;99.90;;;;;;5057050;28;20044;-91
2021/05/27 05:50:46;;;;;;;20.30;13.13;;;10.50;99.90;;;;;;5056949;28;20043;-91
2021/05/27 05:53:17;;;;;;;26.75;13.80;;;10.50;99.90;;;;;;5066921;28;20060;-91
2021/05/27 05:55:46;;;;;;;21.05;13.07;;;10.70;99.90;;;;;;5074790;28;20052;-91
2021/05/27 05:58:14;;;;;;;24.50;11.85;;;11.20;99.90;;;;;;5062667;28;20044;-91
2021/05/27 06:00:51;;;;;;;28.08;14.43;;;10.80;99.90;;;;;;5073184;28;20048;-91
2021/05/27 06:03:22;;;;;;;28.92;13.25;;;10.90;99.90;;;;;;5075333;28;20051;-91
2021/05/27 06:06:11;;;;;;;22.17;13.25;;;10.90;99.90;;;;;;5075607;28;20044;-91
2021/05/27 06:08:42;;;;;;;23.00;12.57;;;11.10;99.90;;;;;;5086863;28;20439;-90
2021/05/27 06:11:14;;;;;;;24.17;12.93;;;11.10;99.90;;;;;;5072204;28;20307;-91
2021/05/27 06:13:42;;;;;;;24.52;13.63;;;11.20;99.90;;;;;;5056861;28;20052;-90
2021/05/27 06:16:17;;;;;;;24.13;13.65;;;11.20;99.90;;;;;;5085273;28;20052;-87
2021/05/27 06:18:45;;;;;;;23.02;12.02;;;11.40;99.90;;;;;;5094295;28;20047;-89
2021/05/27 06:21:36;;;;;;;20.55;12.07;;;11.50;99.90;;;;;;5075960;28;20052;-88
2021/05/27 06:24:13;;;;;;;23.30;13.98;;;11.50;99.90;;;;;;5053664;28;20052;-90
2021/05/27 06:26:40;;;;;;;29.23;13.25;;;11.70;99.90;;;;;;5080905;28;20063;-89
2021/05/27 06:29:08;;;;;;;26.88;15.63;;;11.70;99.90;;;;;;5047689;28;20044;-88
2021/05/27 06:31:36;;;;;;;23.58;14.77;;;11.70;99.90;;;;;;5052126;28;20051;-88
2021/05/27 06:34:04;;;;;;;22.00;13.05;;;11.80;99.90;;;;;;5050584;28;20416;-88
2021/05/27 06:36:32;;;;;;;23.13;12.75;;;12.00;99.90;;;;;;5055417;28;20048;-87
2021/05/27 06:39:03;;;;;;;21.98;13.57;;;12.00;99.90;;;;;;5081998;28;20059;-88
2021/05/27 06:41:33;;;;;;;23.23;13.77;;;12.10;99.90;;;;;;5075718;28;20047;-88
2021/05/27 06:44:01;;;;;;;23.60;14.00;;;12.10;99.90;;;;;;5061672;28;20055;-88
2021/05/27 06:46:30;;;;;;;23.42;14.05;;;12.20;99.90;;;;;;5051751;28;20063;-89
2021/05/27 06:49:02;;;;;;;27.48;12.80;;;12.30;99.90;;;;;;5071667;28;20040;-89
2021/05/27 06:51:30;;;;;;;;;;;12.30;99.90;;;;;;5072007;28;20543;-89
2021/05/27 06:53:58;;;;;;;21.35;11.77;;;12.40;99.90;;;;;;5061915;28;19924;-88
2021/05/27 06:56:27;;;;;;;21.60;12.10;;;12.50;99.90;;;;;;5069763;28;20049;-89
2021/05/27 06:58:56;;;;;;;21.23;11.98;;;12.60;99.90;;;;;;5054038;28;20040;-89
2021/05/27 07:01:25;;;;;;;22.90;11.73;;;12.60;99.90;;;;;;5064686;28;20676;-89
2021/05/27 07:03:54;;;;;;;17.23;10.13;;;12.70;99.90;;;;;;5087960;28;20051;-88
2021/05/27 07:06:22;;;;;;;20.20;11.57;;;12.80;99.90;;;;;;5087965;28;20054;-89
2021/05/27 07:08:51;;;;;;;23.50;11.30;;;12.90;99.90;;;;;;5074725;28;20048;-89
2021/05/27 07:11:19;;;;;;;18.05;9.88;;;12.90;99.90;;;;;;5063123;28;20056;-89
2021/05/27 07:13:47;;;;;;;17.20;10.18;;;13.00;99.90;;;;;;5056308;28;20075;-88
2021/05/27 07:16:15;;;;;;;18.20;10.27;;;13.10;99.90;;;;;;5055058;28;20060;-89
2021/05/27 07:18:43;;;;;;;18.67;10.50;;;13.60;99.90;;;;;;5088117;28;20054;-89
2021/05/27 07:21:10;;;;;;;20.15;10.23;;;13.30;99.90;;;;;;5071727;28;20056;-88
2021/05/27 07:23:38;;;;;;;22.02;10.90;;;13.30;99.90;;;;;;5084192;28;20051;-88
2021/05/27 07:26:06;;;;;;;16.38;8.23;;;13.40;99.90;;;;;;5089326;28;20070;-89
2021/05/27 07:28:34;;;;;;;16.88;9.82;;;13.50;99.90;;;;;;5086749;28;20056;-90
2021/05/27 07:31:03;;;;;;;12.23;7.32;;;13.50;99.90;;;;;;5073309;28;20056;-91
2021/05/27 07:33:30;;;;;;;21.90;8.63;;;13.60;99.90;;;;;;5064048;28;20072;-91
2021/05/27 07:35:59;;;;;;;10.43;5.80;;;13.70;99.90;;;;;;5070440;28;20052;-89
2021/05/27 07:38:26;;;;;;;27.77;7.18;;;13.80;99.90;;;;;;5086407;28;20781;-90
2021/05/27 07:40:56;;;;;;;13.88;7.05;;;13.90;99.90;;;;;;5045354;28;20435;-90
2021/05/27 07:43:24;;;;;;;12.43;5.15;;;13.90;99.90;;;;;;5065112;28;20415;-89
2021/05/27 07:45:52;;;;;;;10.05;3.60;;;14.00;99.90;;;;;;5066428;28;20060;-89
2021/05/27 07:48:19;;;;;;;16.85;5.25;;;14.10;99.90;;;;;;5053479;28;20055;-90
2021/05/27 07:50:47;;;;;;;7.75;3.40;;;14.20;99.90;;;;;;5061493;28;20442;-89
2021/05/27 07:53:19;;;;;;;9.25;4.10;;;14.30;99.90;;;;;;5067027;28;20504;-88
2021/05/27 07:55:47;;;;;;;12.23;4.70;;;14.40;99.90;;;;;;5063159;28;20539;-89
2021/05/27 07:58:15;;;;;;;9.35;4.18;;;14.40;99.90;;;;;;5066994;28;20529;-88
2021/05/27 08:00:43;;;;;;;19.02;4.82;;;14.50;99.90;;;;;;5055528;28;20453;-89
2021/05/27 08:03:11;;;;;;;7.75;3.33;;;14.60;99.90;;;;;;5083921;28;20048;-88
2021/05/27 08:05:39;;;;;;;5.20;2.53;;;14.60;99.90;;;;;;5094938;28;20035;-88
2021/05/27 08:08:06;;;;;;;6.50;2.85;;;14.70;99.90;;;;;;5087985;28;20459;-89
2021/05/27 08:10:34;;;;;;;15.25;4.30;;;14.80;99.90;;;;;;5087891;28;20048;-89
2021/05/27 08:13:03;;;;;;;11.20;3.47;;;14.80;99.90;;;;;;5050908;28;20056;-90
2021/05/27 08:15:31;;;;;;;11.60;4.38;;;14.90;99.90;;;;;;5070826;28;20049;-89
2021/05/27 08:18:01;;;;;;;9.77;4.03;;;15.00;99.90;;;;;;5082050;28;20048;-89
2021/05/27 08:20:28;;;;;;;8.23;3.08;;;15.10;99.90;;;;;;5081890;28;20052;-88
2021/05/27 08:22:56;;;;;;;10.63;2.90;;;15.10;99.90;;;;;;5074148;28;20487;-89
2021/05/27 08:25:43;;;;;;;6.65;2.97;;;15.20;99.90;;;;;;5073815;28;20048;-88
2021/05/27 08:28:11;;;;;;;7.50;3.20;;;15.20;99.90;;;;;;5078411;28;20403;-88
2021/05/27 08:30:39;;;;;;;5.40;3.20;;;15.30;99.90;;;;;;5064287;28;20495;-89
2021/05/27 08:33:07;;;;;;;5.43;3.58;;;15.30;99.90;;;;;;5067724;28;20056;-90
2021/05/27 08:35:36;;;;;;;9.20;3.38;;;15.30;99.90;;;;;;5067375;28;20056;-90
2021/05/27 08:38:04;;;;;;;5.32;2.50;;;15.40;99.90;;;;;;5062186;28;20059;-90
2021/05/27 08:40:36;;;;;;;2.22;1.80;;;15.40;99.90;;;;;;5081718;28;20060;-91
2021/05/27 08:43:05;;;;;;;4.47;2.33;;;15.60;99.90;;;;;;5068483;28;20051;-87
2021/05/27 08:45:37;;;;;;;5.57;2.45;;;15.60;99.90;;;;;;5087749;28;20059;-88
2021/05/27 08:48:12;;;;;;;4.20;2.67;;;15.70;99.90;;;;;;5057492;28;20051;-89
2021/05/27 08:50:44;;;;;;;5.65;3.00;;;15.80;99.90;;;;;;5087340;28;20624;-89
2021/05/27 08:53:17;;;;;;;4.25;2.03;;;15.80;99.90;;;;;;5080703;28;20044;-88
2021/05/27 08:55:46;;;;;;;2.25;1.92;;;15.90;99.90;;;;;;5076777;28;20044;-89
2021/05/27 08:58:16;;;;;;;3.78;2.20;;;16.00;99.90;;;;;;5077445;28;20046;-88
2021/05/27 09:00:44;;;;;;;5.28;2.53;;;16.10;99.90;;;;;;5063881;28;20048;-90
2021/05/27 09:03:17;;;;;;;2.95;2.33;;;16.10;99.90;;;;;;5048145;28;20048;-90
2021/05/27 09:05:46;;;;;;;8.20;2.35;;;16.20;99.90;;;;;;5073318;28;20052;-89
2021/05/27 09:08:29;;;;;;;7.78;2.15;;;16.20;99.90;;;;;;5066102;28;20051;-89
2021/05/27 09:11:05;;;;;;;4.72;2.58;;;16.30;99.90;;;;;;5075551;28;20051;-89
2021/05/27 09:13:37;;;;;;;5.68;2.33;;;16.30;99.90;;;;;;5090862;28;20395;-91
2021/05/27 09:16:08;;;;;;;8.25;2.67;;;16.40;99.90;;;;;;5055374;28;20047;-91
2021/05/27 09:18:41;;;;;;;3.20;1.77;;;16.50;99.90;;;;;;5078487;28;20083;-89
2021/05/27 09:21:11;;;;;;;4.60;2.40;;;16.50;99.90;;;;;;5088503;28;20048;-89
2021/05/27 09:23:54;;;;;;;4.77;2.40;;;16.50;99.90;;;;;;5085284;28;20499;-91
2021/05/27 09:26:22;;;;;;;5.43;2.03;;;16.60;99.90;;;;;;5087201;28;20444;-90
2021/05/27 09:28:50;;;;;;;2.40;2.17;;;16.70;99.90;;;;;;5086171;28;20051;-90
2021/05/27 09:31:22;;;;;;;5.05;2.33;;;16.80;99.90;;;;;;5071616;28;20052;-90
2021/05/27 09:34:02;;;;;;;3.13;1.88;;;16.90;99.90;;;;;;5085397;28;20051;-90
2021/05/27 09:36:30;;;;;;;9.68;2.13;;;17.00;99.90;;;;;;5079589;28;20063;-90
2021/05/27 09:39:03;;;;;;;3.80;2.38;;;17.00;99.90;;;;;;5082689;28;20051;-89
2021/05/27 09:41:33;;;;;;;5.50;2.05;;;17.10;99.90;;;;;;5069103;28;20518;-90
2021/05/27 09:44:01;;;;;;;;;;;17.20;99.90;;;;;;5072499;28;20047;-89
2021/05/27 09:46:50;;;;;;;4.88;1.98;;;17.30;99.90;;;;;;5094495;28;19924;-90
2021/05/27 09:49:23;;;;;;;5.78;1.90;;;17.40;99.90;;;;;;5059351;28;20048;-91
2021/05/27 09:51:53;;;;;;;4.78;2.08;;;17.60;99.90;;;;;;5084919;28;20067;-89
2021/05/27 09:54:20;;;;;;;2.58;2.08;;;17.70;99.90;;;;;;5070019;28;20532;-91
2021/05/27 09:56:49;;;;;;;6.57;1.73;;;17.80;99.90;;;;;;5070711;28;20048;-91
2021/05/27 09:59:17;;;;;;;4.10;1.70;;;18.00;99.90;;;;;;5074183;28;20056;-93
2021/05/27 10:02:14;;;;;;;5.63;2.03;;;18.10;99.90;;;;;;5077319;28;20048;-90
2021/05/27 10:04:58;;;;;;;3.92;1.83;;;18.20;99.90;;;;;;5074126;28;20044;-90
2021/05/27 10:07:50;;;;;;;2.22;1.70;;;18.30;99.90;;;;;;5091438;28;20060;-89
2021/05/27 10:10:41;;;;;;;5.63;3.20;;;18.40;99.90;;;;;;5089164;28;20058;-89
2021/05/27 10:13:13;;;;;;;8.13;1.65;;;18.60;99.90;;;;;;5049897;28;20419;-89
2021/05/27 10:15:44;;;;;;;4.05;1.52;;;18.70;99.80;;;;;;5057059;28;20051;-89
2021/05/27 10:18:18;;;;;;;5.45;2.17;;;18.80;99.20;;;;;;5080384;28;20051;-90
2021/05/27 10:20:50;;;;;;;3.17;2.08;;;18.80;99.20;;;;;;5051228;28;20068;-92
2021/05/27 10:23:19;;;;;;;7.82;2.08;;;18.80;99.10;;;;;;5089916;28;20044;-89
2021/05/27 10:25:48;;;;;;;5.90;1.90;;;18.80;98.40;;;;;;5059144;28;20044;-88
2021/05/27 10:28:17;;;;;;;5.90;2.50;;;18.80;98.60;;;;;;5075927;28;20060;-89
2021/05/27 10:30:46;;;;;;;7.43;2.47;;;18.90;98.50;;;;;;5060193;28;20051;-89
2021/05/27 10:33:20;;;;;;;6.60;2.10;;;19.10;98.60;;;;;;5044213;28;20071;-90
2021/05/27 10:35:59;;;;;;;9.82;2.25;;;19.20;98.10;;;;;;5058767;28;20063;-90
2021/05/27 10:38:41;;;;;;;4.35;2.28;;;19.30;96.90;;;;;;5052032;28;20036;-90
2021/05/27 10:41:12;;;;;;;6.25;1.85;;;19.40;95.60;;;;;;5082598;28;20254;-92
2021/05/27 10:44:08;;;;;;;4.07;2.45;;;19.40;96.80;;;;;;5073405;28;20463;-90
2021/05/27 10:46:44;;;;;;;5.10;1.95;;;19.60;95.30;;;;;;5058662;28;20044;-92
2021/05/27 10:49:12;;;;;;;2.45;1.58;;;19.70;95.90;;;;;;5083623;28;20052;-90
2021/05/27 10:51:45;;;;;;;3.75;2.08;;;19.70;95.40;;;;;;5059449;28;20041;-91
2021/05/27 10:54:14;;;;;;;3.53;1.90;;;19.90;95.00;;;;;;5077683;28;20061;-90
2021/05/27 10:56:47;;;;;;;3.42;1.25;;;19.90;94.20;;;;;;5069106;28;20040;-90
2021/05/27 10:59:16;;;;;;;9.23;2.10;;;20.00;93.70;;;;;;5076577;28;20053;-88
2021/05/27 11:01:45;;;;;;;1.63;1.45;;;20.00;93.50;;;;;;5065889;28;20060;-89
2021/05/27 11:04:32;;;;;;;1.90;1.40;;;20.20;93.40;;;;;;5063969;28;20057;-89
2021/05/27 11:07:18;;;;;;;7.13;1.80;;;20.30;92.90;;;;;;5073968;28;20055;-91
2021/05/27 11:09:50;;;;;;;4.22;1.35;;;20.40;91.90;;;;;;5052300;28;20786;-88
2021/05/27 11:12:23;;;;;;;3.35;1.50;;;20.30;91.50;;;;;;5065218;28;20061;-89
2021/05/27 11:14:54;;;;;;;5.97;1.38;;;20.20;90.90;;;;;;5065071;28;20048;-90
2021/05/27 11:17:27;;;;;;;3.27;1.90;;;20.20;90.90;;;;;;5072022;28;20069;-89
2021/05/27 11:20:14;;;;;;;2.92;1.63;;;20.30;91.10;;;;;;5071636;28;20071;-89
2021/05/27 11:25:14;;;;;;;10.38;2.15;;;20.40;90.30;;;;;;5070741;28;20045;-89
2021/05/27 11:27:46;;;;;;;2.90;1.60;;;20.40;90.20;;;;;;5079739;28;20494;-89
2021/05/27 11:30:25;;;;;;;3.65;1.58;;;20.40;89.70;;;;;;5064064;28;20044;-89
2021/05/27 11:33:21;;;;;;;3.72;1.40;;;20.30;87.50;;;;;;5086182;28;20060;-89
2021/05/27 11:35:57;;;;;;;1.63;1.10;;;20.30;87.80;;;;;;5066831;28;20437;-90
2021/05/27 11:38:35;;;;;;;2.75;1.20;;;20.30;85.70;;;;;;5072510;28;20059;-90
2021/05/27 11:41:18;;;;;;;5.18;1.42;;;20.50;86.90;;;;;;5091254;28;20114;-91
2021/05/27 11:43:48;;;;;;;5.80;2.20;;;20.70;87.00;;;;;;5081477;28;20059;-91
2021/05/27 11:46:30;;;;;;;4.60;1.88;;;21.00;86.80;;;;;;5067415;28;20466;-88
2021/05/27 11:49:02;;;;;;;11.52;2.47;;;21.20;85.30;;;;;;5082371;28;20048;-89
2021/05/27 11:51:34;;;;;;;3.80;1.58;;;21.40;84.50;;;;;;5072336;28;20048;-91
2021/05/27 11:54:09;;;;;;;5.28;2.00;;;21.60;83.10;;;;;;5074124;28;20048;-91
2021/05/27 11:56:44;;;;;;;3.80;1.90;;;21.60;82.40;;;;;;5077312;28;20444;-89
2021/05/27 11:59:20;;;;;;;3.70;1.33;;;21.50;80.20;;;;;;5061033;28;20058;-89
2021/05/27 12:02:00;;;;;;;3.40;1.25;;;21.40;80.00;;;;;;5075316;28;20256;-89
2021/05/27 12:04:30;;;;;;;3.40;1.20;;;21.30;80.00;;;;;;5081302;28;20055;-90
2021/05/27 12:07:06;;;;;;;5.05;1.73;;;21.20;80.60;;;;;;5074860;28;20858;-88
2021/05/27 12:09:43;;;;;;;8.90;1.80;;;21.20;79.40;;;;;;5067056;28;20055;-89
2021/05/27 12:12:26;;;;;;;3.28;1.95;;;21.30;79.50;;;;;;5099607;28;20055;-90
2021/05/27 12:14:58;;;;;;;9.85;2.20;;;21.50;79.10;;;;;;5096916;28;20052;-90
2021/05/27 12:17:26;;;;;;;2.75;1.70;;;21.70;78.50;;;;;;5098702;28;20105;-89
2021/05/27 12:20:10;;;;;;;3.30;2.13;;;22.00;78.20;;;;;;5093972;28;20055;-89
2021/05/27 12:22:48;;;;;;;4.93;1.58;;;22.20;76.30;;;;;;5086402;28;20048;-87
2021/05/27 12:25:19;;;;;;;5.47;1.27;;;22.40;74.90;;;;;;5088282;28;20414;-87
2021/05/27 12:27:49;;;;;;;3.22;1.27;;;22.40;74.40;;;;;;5083582;28;20051;-89
2021/05/27 12:30:20;;;;;;;4.40;1.67;;;22.30;75.30;;;;;;5081917;28;20737;-89
2021/05/27 12:32:50;;;;;;;6.72;1.70;;;22.30;74.40;;;;;;5075542;28;20062;-89
2021/05/27 12:35:24;;;;;;;4.32;2.40;;;22.30;74.10;;;;;;5072946;28;20043;-89
2021/05/27 12:37:54;;;;;;;5.53;1.55;;;22.30;73.70;;;;;;5059200;28;20223;-86
2021/05/27 12:40:36;;;;;;;6.85;1.30;;;22.40;74.10;;;;;;5088183;28;20048;-87
2021/05/27 12:43:32;;;;;;;5.15;1.65;;;22.60;73.30;;;;;;5082933;28;20058;-87
2021/05/27 12:46:09;;;;;;;3.45;1.77;;;22.70;71.00;;;;;;5083070;28;20079;-86
2021/05/27 12:48:49;;;;;;;3.15;1.63;;;22.90;71.10;;;;;;5069841;28;20044;-88
2021/05/27 12:51:18;;;;;;;4.65;1.63;;;23.00;69.70;;;;;;5045916;28;20952;-87
2021/05/27 12:53:46;;;;;;;5.35;1.48;;;23.20;70.00;;;;;;5078129;28;20048;-87
2021/05/27 12:56:15;;;;;;;3.17;1.98;;;23.40;69.10;;;;;;5077579;28;20067;-86
2021/05/27 12:58:45;;;;;;;5.75;1.42;;;23.50;68.70;;;;;;5084601;28;20051;-85
2021/05/27 13:01:14;;;;;;;3.88;1.50;;;23.50;67.80;;;;;;5088925;28;20820;-85
2021/05/27 13:03:51;;;;;;;4.35;1.73;;;23.50;67.40;;;;;;5094069;28;20056;-85
2021/05/27 13:06:27;;;;;;;3.85;1.50;;;23.30;66.10;;;;;;5090846;28;20580;-85
2021/05/27 13:08:57;;;;;;;5.57;1.85;;;23.10;66.80;;;;;;5086715;28;20055;-85
2021/05/27 13:11:32;;;;;;;3.10;1.70;;;23.00;67.10;;;;;;5085988;28;20048;-85
2021/05/27 13:14:19;;;;;;;4.93;1.98;;;22.90;66.50;;;;;;5071607;28;20044;-86
2021/05/27 13:16:54;;;;;;;7.43;1.40;;;22.90;66.70;;;;;;5076469;28;20059;-85
2021/05/27 13:19:25;;;;;;;2.70;1.70;;;22.80;66.20;;;;;;5077426;28;20059;-85
2021/05/27 13:21:57;;;;;;;4.45;2.08;;;22.90;66.10;;;;;;5081839;28;20063;-85
2021/05/27 13:24:42;;;;;;;7.10;1.90;;;23.00;65.90;;;;;;5080402;28;20060;-83
2021/05/27 13:27:12;;;;;;;3.85;1.80;;;23.20;65.10;;;;;;5058343;28;20044;-84
2021/05/27 13:29:51;;;;;;;2.80;1.20;;;23.40;65.50;;;;;;5081608;28;20051;-84
2021/05/27 13:32:22;;;;;;;3.08;1.73;;;23.40;63.80;;;;;;5083704;28;20075;-87
2021/05/27 13:34:52;;;;;;;2.45;1.45;;;23.50;63.90;;;;;;5075786;28;20053;-86
2021/05/27 13:37:47;;;;;;;4.50;1.50;;;23.70;64.40;;;;;;5068934;28;20419;-83
2021/05/27 13:40:27;;;;;;;5.63;1.77;;;24.10;62.40;;;;;;5081970;28;20398;-82
2021/05/27 13:42:58;;;;;;;2.90;1.60;;;24.40;62.70;;;;;;5080685;28;20502;-84
2021/05/27 13:45:29;;;;;;;6.30;1.92;;;24.70;62.10;;;;;;5085860;28;20059;-84
2021/05/27 13:47:57;;;;;;;4.13;1.45;;;24.80;61.00;;;;;;5087869;28;20052;-84
2021/05/27 13:50:29;;;;;;;5.80;1.90;;;24.80;60.40;;;;;;5085058;28;20052;-84
2021/05/27 13:53:05;;;;;;;2.47;1.50;;;24.70;60.70;;;;;;5081732;28;20553;-82
2021/05/27 13:55:44;;;;;;;8.35;1.85;;;24.90;60.60;;;;;;5070147;28;20051;-83
2021/05/27 13:58:12;;;;;;;3.92;1.48;;;24.90;60.10;;;;;;5064334;28;20055;-85
2021/05/27 14:00:40;;;;;;;4.80;1.52;;;24.90;60.40;;;;;;5072791;28;20064;-84
2021/05/27 14:03:20;;;;;;;5.10;1.63;;;24.80;60.20;;;;;;5074061;28;20055;-83
2021/05/27 14:05:48;;;;;;;8.68;2.03;;;24.60;59.80;;;;;;5072902;28;20052;-86
2021/05/27 14:08:17;;;;;;;3.70;1.30;;;24.40;60.10;;;;;;5079249;28;20497;-83
2021/05/27 14:10:45;;;;;;;3.72;1.17;;;24.30;61.00;;;;;;5077163;28;20049;-85
2021/05/27 14:13:13;;;;;;;3.97;1.50;;;24.20;60.20;;;;;;5078326;28;20056;-84
2021/05/27 14:15:45;;;;;;;3.90;1.52;;;24.10;60.30;;;;;;5074466;28;20056;-83
2021/05/27 14:18:13;;;;;;;2.92;0.98;;;24.10;60.80;;;;;;5076293;28;20091;-83
2021/05/27 14:20:41;;;;;;;5.70;1.60;;;23.90;60.60;;;;;;5085407;28;20043;-83